Arlington, Illinois
Current Conditions -  °F | °C
As of 7:15 AM on Sunday 21 Dec 2014 (Local Time) from KVYS Reporting Station
Overcast Overcast  
Wind Chill: 27°   Ceiling: 4200
Heat Index: 34°   Visibility: 7mi
Dew Point: 31°   Wind: 9mph
Humidity: 89%   Direction: 180°S
Pressure: 30.19"   Gusts: NA
Location:  41.47°N, 89.25°W
Report Text: KVYS 211315Z AUTO 18008KT 7SM OVC042 01/00 A3019 RMK AO2 T00131003
Loading
Personal Weather Stations






























Interactive Weather Map New forecast layout! Learn more

10-Day Weather Forecast

Advertisements
Track Severe Weather on mobile